Time;durP1;ratioP1;P1;durP2;ratioP2;P2;SDS_P1;SDS_P2;PMS_P1;PMS_P2;Temp;Humidity;BMP_temperature;BMP_pressure;BME280_temperature;BME280_humidity;BME280_pressure;Samples;Min_cycle;Max_cycle;Signal;HPM_P1;HPM_P2
2022/01/12 00:00:21;;;;;;;22.33;10.40;;;3.90;99.90;;;;;;4976181;28;20022;-88
2022/01/12 00:02:47;;;;;;;24.23;11.77;;;3.90;99.90;;;;;;4975458;28;20027;-86
2022/01/12 00:05:14;;;;;;;24.83;11.45;;;3.90;99.90;;;;;;4975649;28;20056;-86
2022/01/12 00:07:39;;;;;;;24.83;11.57;;;3.90;99.90;;;;;;4977012;28;20069;-86
2022/01/12 00:10:05;;;;;;;22.48;11.23;;;3.90;99.90;;;;;;4976783;28;20018;-86
2022/01/12 00:12:31;;;;;;;24.80;13.60;;;3.90;99.90;;;;;;4976156;28;20030;-86
2022/01/12 00:14:56;;;;;;;23.60;12.07;;;3.80;99.90;;;;;;4978747;28;20073;-86
2022/01/12 00:17:22;;;;;;;31.42;14.18;;;3.70;99.90;;;;;;4980212;28;20080;-86
2022/01/12 00:19:48;;;;;;;27.77;14.65;;;3.70;99.90;;;;;;4979749;28;20038;-87
2022/01/12 00:22:14;;;;;;;27.75;13.95;;;3.60;99.90;;;;;;4980215;28;20188;-89
2022/01/12 00:25:04;;;;;;;27.70;14.50;;;3.60;99.90;;;;;;4995982;28;20042;-87
2022/01/12 00:35:34;;;;;;;35.08;16.13;;;3.40;99.90;;;;;;4997590;28;20034;-87
2022/01/12 00:37:59;;;;;;;36.28;17.05;;;3.30;99.90;;;;;;4980111;28;20172;-87
2022/01/12 00:40:25;;;;;;;42.05;17.48;;;3.30;99.90;;;;;;4978631;28;20485;-88
2022/01/12 00:42:50;;;;;;;39.10;16.77;;;3.30;99.90;;;;;;4979475;28;20037;-88
2022/01/12 00:45:18;;;;;;;34.13;17.23;;;3.30;99.90;;;;;;4988771;28;20035;-88
2022/01/12 00:47:43;;;;;;;38.83;17.38;;;3.30;99.90;;;;;;4980891;28;20022;-88
2022/01/12 00:50:09;;;;;;;40.00;18.83;;;3.30;99.90;;;;;;4980252;28;20550;-88
2022/01/12 00:52:35;;;;;;;47.13;19.15;;;3.30;99.90;;;;;;4996242;28;20065;-88
2022/01/12 00:55:01;;;;;;;40.10;18.88;;;3.30;99.90;;;;;;4979952;28;20101;-88
2022/01/12 00:57:26;;;;;;;44.13;20.20;;;3.30;99.90;;;;;;4979447;28;20030;-88
2022/01/12 00:59:52;;;;;;;40.83;18.70;;;3.30;99.90;;;;;;4980223;28;20053;-89
2022/01/12 01:02:17;;;;;;;41.08;19.10;;;3.30;99.90;;;;;;4979147;28;20483;-88
2022/01/12 01:04:43;;;;;;;39.30;19.75;;;3.30;99.90;;;;;;4979774;28;20096;-89
2022/01/12 01:07:08;;;;;;;42.85;19.05;;;3.30;99.90;;;;;;4978938;28;20027;-90
2022/01/12 01:09:37;;;;;;;43.03;19.35;;;3.30;99.90;;;;;;4986721;28;20030;-88
2022/01/12 01:12:03;;;;;;;43.85;21.83;;;3.30;99.90;;;;;;4978080;28;20080;-88
2022/01/12 01:14:48;;;;;;;38.60;19.50;;;3.30;99.90;;;;;;4979854;28;20062;-89
2022/01/12 01:25:33;;;;;;;39.90;20.38;;;3.20;99.90;;;;;;4995905;28;20433;-89
2022/01/12 01:28:00;;;;;;;45.78;20.63;;;3.20;99.90;;;;;;4979383;28;20466;-89
2022/01/12 01:30:26;;;;;;;47.42;20.55;;;3.20;99.90;;;;;;4974336;28;20058;-89
2022/01/12 01:32:53;;;;;;;43.85;19.95;;;3.20;99.90;;;;;;4996290;28;20031;-88
2022/01/12 01:35:19;;;;;;;43.72;21.40;;;3.20;99.90;;;;;;4986994;28;20029;-88
2022/01/12 01:37:44;;;;;;;45.45;22.25;;;3.30;99.90;;;;;;4979192;28;20031;-89
2022/01/12 01:40:11;;;;;;;38.20;19.90;;;3.20;99.90;;;;;;4979403;28;20521;-89
2022/01/12 01:42:55;;;;;;;42.47;20.23;;;3.30;99.90;;;;;;4977147;28;20513;-89
2022/01/12 01:53:36;;;;;;;38.90;20.48;;;3.20;99.90;;;;;;4996288;28;20041;-88
2022/01/12 01:56:01;;;;;;;51.38;22.98;;;3.30;99.90;;;;;;4978863;28;20026;-88
2022/01/12 01:58:27;;;;;;;41.47;20.08;;;3.20;99.90;;;;;;4979808;28;20034;-88
2022/01/12 02:00:52;;;;;;;43.33;22.42;;;3.20;99.90;;;;;;4977843;28;20065;-89
2022/01/12 02:03:19;;;;;;;49.67;21.98;;;3.20;99.90;;;;;;4996175;28;20038;-89
2022/01/12 02:05:45;;;;;;;49.38;22.40;;;3.10;99.90;;;;;;4978555;28;20077;-89
2022/01/12 02:08:11;;;;;;;42.55;22.25;;;3.10;99.90;;;;;;4978626;28;20053;-89
2022/01/12 02:10:37;;;;;;;43.70;22.95;;;3.10;99.90;;;;;;4978500;28;20456;-88
2022/01/12 02:13:03;;;;;;;50.88;24.23;;;3.10;99.90;;;;;;4978078;28;20077;-89
2022/01/12 02:15:29;;;;;;;46.83;23.67;;;3.10;99.90;;;;;;4977921;28;20027;-89
2022/01/12 02:18:11;;;;;;;43.20;22.50;;;3.10;99.90;;;;;;4977213;28;20513;-88
2022/01/12 02:39:50;;;;;;;55.58;24.05;;;3.10;99.90;;;;;;4999462;28;20061;-87
2022/01/12 02:40:07;;;;;;;53.15;24.02;;;3.10;99.90;;;;;;4982215;28;20057;-88
2022/01/12 02:42:34;;;;;;;56.72;26.02;;;3.20;99.90;;;;;;4976981;28;20022;-87
2022/01/12 02:50:44;;;;;;;54.35;26.05;;;3.20;99.90;;;;;;4994360;28;20040;-88
2022/01/12 02:55:55;;;;;;;49.80;24.60;;;3.20;99.90;;;;;;4993280;28;20057;-87
2022/01/12 02:58:21;;;;;;;51.75;26.92;;;3.20;99.90;;;;;;4993671;28;20517;-88
2022/01/12 03:03:49;;;;;;;49.17;24.30;;;3.20;99.90;;;;;;4990211;28;20054;-88
2022/01/12 03:06:18;;;;;;;61.80;28.52;;;3.20;99.90;;;;;;4977369;28;20117;-87
2022/01/12 03:08:45;;;;;;;59.70;28.70;;;3.20;99.90;;;;;;4978119;28;20113;-87
2022/01/12 03:11:16;;;;;;;62.20;28.05;;;3.20;99.90;;;;;;4975464;28;20053;-88
2022/01/12 03:13:42;;;;;;;58.88;28.08;;;3.20;99.90;;;;;;4976610;28;20050;-87
2022/01/12 03:16:16;;;;;;;61.53;29.38;;;3.20;99.90;;;;;;4976861;28;20030;-87
2022/01/12 03:18:43;;;;;;;69.55;30.42;;;3.20;99.90;;;;;;4977495;28;20026;-88
2022/01/12 03:21:09;;;;;;;66.32;30.95;;;3.20;99.90;;;;;;4976936;28;20053;-88
2022/01/12 03:23:35;;;;;;;65.85;28.92;;;3.20;99.90;;;;;;4977181;28;20046;-88
2022/01/12 03:26:00;;;;;;;63.10;29.60;;;3.10;99.90;;;;;;4971804;28;20037;-88
2022/01/12 03:28:26;;;;;;;71.10;30.42;;;3.20;99.90;;;;;;4976694;28;20034;-88
2022/01/12 03:31:03;;;;;;;71.70;32.70;;;3.20;99.90;;;;;;4976445;28;20156;-88
2022/01/12 03:38:53;;;;;;;71.95;30.50;;;3.20;99.90;;;;;;4993797;28;20034;-87
2022/01/12 03:41:19;;;;;;;80.20;32.55;;;3.20;99.90;;;;;;4976804;28;20030;-88
2022/01/12 03:43:45;;;;;;;72.68;32.20;;;3.20;99.90;;;;;;4977157;28;20085;-88
2022/01/12 03:46:16;;;;;;;75.28;34.42;;;3.20;99.90;;;;;;4977291;28;20026;-88
2022/01/12 03:48:42;;;;;;;74.63;31.70;;;3.30;99.90;;;;;;4976502;28;20053;-89
2022/01/12 03:51:08;;;;;;;74.65;32.40;;;3.30;99.90;;;;;;4984524;28;20029;-88
2022/01/12 03:53:33;;;;;;;71.70;32.25;;;3.30;99.90;;;;;;4995983;28;20034;-89
2022/01/12 03:55:59;;;;;;;70.45;32.53;;;3.30;99.90;;;;;;4976640;28;20076;-89
2022/01/12 03:58:25;;;;;;;85.40;34.58;;;3.30;99.90;;;;;;4976787;28;20042;-88
2022/01/12 04:00:50;;;;;;;82.13;33.30;;;3.30;99.90;;;;;;4977368;28;20046;-89
2022/01/12 04:03:16;;;;;;;84.25;32.50;;;3.30;99.90;;;;;;4977646;28;20121;-89
2022/01/12 04:08:21;;;;;;;74.32;32.75;;;3.30;99.90;;;;;;5000734;28;20034;-89
2022/01/12 04:10:46;;;;;;;74.72;33.78;;;3.30;99.90;;;;;;4977235;28;20126;-89
2022/01/12 04:13:13;;;;;;;89.45;34.88;;;3.30;99.90;;;;;;4986920;28;20070;-89
2022/01/12 04:15:40;;;;;;;86.60;34.47;;;3.30;99.90;;;;;;4976199;28;20509;-89
2022/01/12 04:18:05;;;;;;;80.53;34.88;;;3.30;99.90;;;;;;4977347;28;20019;-89
2022/01/12 04:20:31;;;;;;;84.70;32.70;;;3.30;99.90;;;;;;4980201;28;20517;-89
2022/01/12 04:25:41;;;;;;;85.18;35.22;;;3.30;99.90;;;;;;4994502;28;20034;-90
2022/01/12 04:28:06;;;;;;;89.10;35.85;;;3.30;99.90;;;;;;4976876;28;20018;-89
2022/01/12 04:30:32;;;;;;;83.63;37.13;;;3.30;99.90;;;;;;4994519;28;20386;-89
2022/01/12 04:32:57;;;;;;;85.80;36.75;;;3.40;99.90;;;;;;4975485;28;20451;-89
2022/01/12 04:35:26;;;;;;;99.85;37.42;;;3.40;99.90;;;;;;4976945;28;20214;-89
2022/01/12 04:37:51;;;;;;;91.95;36.13;;;3.40;99.90;;;;;;4976373;28;20073;-90
2022/01/12 04:40:17;;;;;;;90.57;35.85;;;3.40;99.90;;;;;;4993778;28;20487;-89
2022/01/12 04:42:43;;;;;;;82.85;36.63;;;3.40;99.90;;;;;;4981674;28;20031;-90
2022/01/12 04:48:08;;;;;;;99.68;37.03;;;3.40;99.90;;;;;;4964787;28;20061;-90
2022/01/12 04:50:37;;;;;;;93.10;36.67;;;3.40;99.90;;;;;;4992262;28;20090;-90
2022/01/12 04:53:04;;;;;;;97.10;38.33;;;3.40;99.90;;;;;;4976074;28;20026;-90
2022/01/12 04:55:29;;;;;;;100.60;37.75;;;3.50;99.90;;;;;;4993085;28;20041;-90
2022/01/12 04:57:55;;;;;;;98.03;40.63;;;3.50;99.90;;;;;;4976245;28;20030;-90
2022/01/12 05:00:22;;;;;;;94.28;37.45;;;3.50;99.90;;;;;;4993710;28;20113;-91
2022/01/12 05:08:23;;;;;;;84.82;36.72;;;3.50;99.90;;;;;;5001929;28;20081;-89
2022/01/12 05:13:35;;;;;;;93.50;37.67;;;3.50;99.90;;;;;;4993239;28;20041;-88
2022/01/12 05:16:01;;;;;;;83.18;37.28;;;3.50;99.90;;;;;;4980103;28;20054;-89
2022/01/12 05:18:28;;;;;;;98.47;39.55;;;3.50;99.90;;;;;;4979335;28;20050;-89
2022/01/12 05:20:53;;;;;;;92.38;38.83;;;3.50;99.90;;;;;;4979183;28;20034;-90
2022/01/12 05:23:19;;;;;;;87.10;38.80;;;3.50;99.90;;;;;;4979023;28;20080;-90
2022/01/12 05:25:47;;;;;;;94.18;38.25;;;3.50;99.90;;;;;;4978330;28;20108;-89
2022/01/12 05:28:14;;;;;;;97.53;39.25;;;3.50;99.90;;;;;;4979382;28;20033;-89
2022/01/12 05:30:40;;;;;;;90.10;36.80;;;3.50;99.90;;;;;;4979443;28;20031;-89
2022/01/12 05:33:06;;;;;;;89.13;37.75;;;3.50;99.90;;;;;;4983357;28;20026;-89
2022/01/12 05:35:33;;;;;;;94.05;39.40;;;3.50;99.90;;;;;;4985997;28;20026;-90
2022/01/12 05:38:00;;;;;;;103.70;39.65;;;3.50;99.90;;;;;;4978712;28;20098;-89
2022/01/12 05:40:26;;;;;;;86.95;36.80;;;3.50;99.90;;;;;;4978496;28;20146;-89
2022/01/12 05:42:53;;;;;;;90.85;40.25;;;3.50;99.90;;;;;;4979061;28;20503;-90
2022/01/12 05:45:19;;;;;;;106.63;41.97;;;3.50;99.90;;;;;;4977884;28;20069;-90
2022/01/12 05:50:12;;;;;;;90.72;37.35;;;3.50;99.90;;;;;;4995699;28;20030;-90
2022/01/12 05:52:38;;;;;;;87.70;37.28;;;3.60;99.90;;;;;;4978364;28;20033;-91
2022/01/12 05:55:05;;;;;;;95.45;40.38;;;3.50;99.90;;;;;;4979203;28;20030;-89
2022/01/12 05:57:31;;;;;;;93.03;39.97;;;3.60;99.90;;;;;;4977963;28;20022;-89
2022/01/12 05:59:58;;;;;;;91.75;37.15;;;3.60;99.90;;;;;;4972820;28;20093;-89
2022/01/12 06:02:24;;;;;;;95.10;40.10;;;3.60;99.90;;;;;;4977989;28;20049;-89
2022/01/12 06:04:50;;;;;;;90.22;38.58;;;3.50;99.90;;;;;;4977406;28;20507;-89
2022/01/12 06:07:15;;;;;;;94.95;37.60;;;3.60;99.90;;;;;;4977927;28;20558;-89
2022/01/12 06:09:41;;;;;;;94.57;37.38;;;3.50;99.90;;;;;;4978710;28;20057;-89
2022/01/12 06:12:07;;;;;;;91.57;38.38;;;3.50;99.90;;;;;;4977764;28;20033;-89
2022/01/12 06:14:32;;;;;;;93.88;37.55;;;3.50;99.90;;;;;;4979091;28;20033;-89
2022/01/12 06:16:58;;;;;;;95.70;40.60;;;3.50;99.90;;;;;;4979075;28;20487;-89
2022/01/12 06:19:24;;;;;;;108.45;38.80;;;3.50;99.90;;;;;;4976844;28;20030;-89
2022/01/12 06:21:49;;;;;;;93.38;38.13;;;3.60;99.90;;;;;;4980909;28;20030;-89
2022/01/12 06:24:15;;;;;;;97.70;39.75;;;3.50;99.90;;;;;;4998756;28;20092;-88
2022/01/12 06:26:42;;;;;;;85.25;37.28;;;3.50;99.90;;;;;;4981336;28;20019;-88
2022/01/12 06:31:38;;;;;;;99.35;37.13;;;3.50;99.90;;;;;;4990448;28;20046;-89
2022/01/12 06:34:04;;;;;;;94.93;40.28;;;3.50;99.90;;;;;;4969665;28;20039;-91
2022/01/12 06:36:30;;;;;;;94.55;38.58;;;3.50;99.90;;;;;;4989546;28;20030;-90
2022/01/12 06:38:55;;;;;;;88.82;38.58;;;3.50;99.90;;;;;;4975311;28;20061;-90
2022/01/12 06:41:21;;;;;;;90.80;39.88;;;3.50;99.90;;;;;;4977671;28;20549;-90
2022/01/12 06:43:47;;;;;;;90.70;36.83;;;3.50;99.90;;;;;;4977748;28;20133;-90
2022/01/12 06:46:23;;;;;;;93.35;38.17;;;3.60;99.90;;;;;;4975312;28;20022;-89
2022/01/12 06:48:48;;;;;;;93.72;38.92;;;3.60;99.90;;;;;;4979052;28;20041;-90
2022/01/12 06:51:14;;;;;;;89.60;38.72;;;3.60;99.90;;;;;;4977686;28;20026;-89
2022/01/12 06:53:40;;;;;;;91.80;38.80;;;3.60;99.90;;;;;;4980150;28;20057;-89
2022/01/12 06:56:08;;;;;;;103.07;39.97;;;3.60;99.90;;;;;;4979568;28;20129;-89
2022/01/12 06:58:34;;;;;;;101.32;38.75;;;3.70;99.90;;;;;;4985316;28;20178;-90
2022/01/12 07:01:00;;;;;;;93.57;39.00;;;3.60;99.90;;;;;;4981109;28;20050;-89
2022/01/12 07:03:27;;;;;;;104.50;40.35;;;3.70;99.90;;;;;;4978432;28;20033;-90
2022/01/12 07:05:52;;;;;;;111.88;40.13;;;3.60;99.90;;;;;;5005703;28;20022;-89
2022/01/12 07:08:18;;;;;;;115.40;39.70;;;3.70;99.90;;;;;;4990759;28;20023;-90
2022/01/12 07:10:44;;;;;;;122.53;40.38;;;3.60;99.90;;;;;;4996511;28;20026;-90
2022/01/12 07:13:11;;;;;;;113.55;39.45;;;3.70;99.90;;;;;;4977979;28;20026;-90
2022/01/12 07:15:38;;;;;;;139.73;41.55;;;3.70;99.90;;;;;;4977548;28;20117;-89
2022/01/12 07:18:04;;;;;;;141.30;41.65;;;3.60;99.90;;;;;;4977671;28;20482;-91
2022/01/12 07:20:30;;;;;;;147.05;41.30;;;3.60;99.90;;;;;;4978406;28;20030;-89
2022/01/12 07:22:55;;;;;;;144.98;43.35;;;3.70;99.90;;;;;;4977957;28;20576;-92
2022/01/12 07:25:22;;;;;;;153.07;42.88;;;3.70;99.90;;;;;;4977391;28;20034;-90
2022/01/12 07:27:47;;;;;;;168.35;42.97;;;3.70;99.90;;;;;;4979154;28;20030;-90
2022/01/12 07:30:13;;;;;;;131.88;41.45;;;3.70;99.90;;;;;;4979650;28;20027;-90
2022/01/12 07:32:39;;;;;;;172.65;41.90;;;3.70;99.90;;;;;;4979843;28;20031;-90
2022/01/12 07:35:06;;;;;;;175.32;42.53;;;3.70;99.90;;;;;;4975676;28;20034;-89
2022/01/12 07:37:32;;;;;;;149.40;42.10;;;3.70;99.90;;;;;;4978834;28;20386;-89
2022/01/12 07:39:58;;;;;;;219.52;43.05;;;3.70;99.90;;;;;;4977996;28;20035;-89
2022/01/12 07:42:24;;;;;;;311.85;48.55;;;3.70;99.90;;;;;;4982791;28;20064;-89
2022/01/12 07:44:58;;;;;;;225.75;43.58;;;3.70;99.90;;;;;;4971181;28;20129;-89
2022/01/12 07:47:24;;;;;;;291.02;47.63;;;3.70;99.90;;;;;;4978765;28;20039;-89
2022/01/12 07:49:50;;;;;;;259.05;47.03;;;3.70;99.90;;;;;;4981874;28;20557;-89
2022/01/12 07:52:15;;;;;;;206.77;42.60;;;3.60;99.90;;;;;;4978537;28;20030;-88
2022/01/12 07:54:41;;;;;;;146.55;38.47;;;3.60;99.90;;;;;;4971325;28;20022;-90
2022/01/12 07:57:07;;;;;;;196.13;39.90;;;3.60;99.90;;;;;;4975926;28;20058;-90
2022/01/12 07:59:32;;;;;;;264.33;44.60;;;3.60;99.90;;;;;;4976607;28;20398;-90
2022/01/12 08:01:58;;;;;;;197.60;41.47;;;3.60;99.90;;;;;;4972587;28;20026;-89
2022/01/12 08:04:23;;;;;;;238.18;43.13;;;3.60;99.90;;;;;;4969842;28;20034;-90
2022/01/12 08:06:49;;;;;;;178.90;41.17;;;3.60;99.90;;;;;;4976577;28;20073;-90
2022/01/12 08:09:14;;;;;;;153.35;40.95;;;3.60;99.90;;;;;;4993406;28;20102;-89
2022/01/12 08:11:40;;;;;;;317.13;45.88;;;3.70;99.90;;;;;;4994015;28;20049;-89
2022/01/12 08:14:05;;;;;;;116.95;35.08;;;3.70;99.90;;;;;;4974833;28;20038;-89
2022/01/12 08:16:31;;;;;;;95.82;29.58;;;3.80;99.90;;;;;;4976356;28;20026;-89
2022/01/12 08:18:56;;;;;;;103.13;31.75;;;3.80;99.90;;;;;;4974173;28;20030;-90
2022/01/12 08:21:24;;;;;;;109.82;31.95;;;3.80;99.90;;;;;;4973811;28;20019;-89
2022/01/12 08:23:49;;;;;;;100.82;31.60;;;3.80;99.90;;;;;;4976617;28;20507;-89
2022/01/12 08:26:15;;;;;;;102.00;32.00;;;3.90;99.90;;;;;;4987795;28;20037;-88
2022/01/12 08:28:40;;;;;;;84.88;28.85;;;3.90;99.90;;;;;;4979588;28;20120;-91
2022/01/12 08:31:06;;;;;;;95.10;28.77;;;3.90;99.90;;;;;;4981557;28;20034;-90
2022/01/12 08:33:33;;;;;;;81.03;26.55;;;4.00;99.90;;;;;;4980862;28;20031;-90
2022/01/12 08:35:59;;;;;;;78.05;25.40;;;4.00;99.90;;;;;;4982975;28;20030;-89
2022/01/12 08:38:25;;;;;;;69.95;23.40;;;4.00;99.90;;;;;;4983101;28;20042;-90
2022/01/12 08:40:50;;;;;;;78.80;25.05;;;4.10;99.90;;;;;;4983252;28;20032;-89
2022/01/12 08:43:16;;;;;;;76.10;25.60;;;4.00;99.90;;;;;;4982724;28;20034;-88
2022/01/12 08:45:42;;;;;;;70.47;24.98;;;4.00;99.90;;;;;;4983489;28;20034;-89
2022/01/12 08:48:08;;;;;;;73.13;23.48;;;4.10;99.90;;;;;;4981535;28;20030;-89
2022/01/12 08:50:34;;;;;;;82.07;25.23;;;4.10;99.90;;;;;;4979677;28;20027;-89
2022/01/12 08:53:00;;;;;;;76.18;24.48;;;4.00;99.90;;;;;;4983261;28;20036;-90
2022/01/12 08:55:26;;;;;;;68.25;24.08;;;4.00;99.90;;;;;;4997785;28;20106;-86
2022/01/12 08:57:52;;;;;;;76.57;24.67;;;4.10;99.90;;;;;;4981694;28;20474;-90
2022/01/12 09:00:19;;;;;;;71.00;24.35;;;4.10;99.90;;;;;;4996998;28;20474;-87
2022/01/12 09:02:45;;;;;;;62.90;22.40;;;4.10;99.90;;;;;;4982026;28;20034;-89
2022/01/12 09:05:11;;;;;;;74.13;24.98;;;4.10;99.90;;;;;;4978649;28;20038;-88
2022/01/12 09:07:38;;;;;;;69.28;23.52;;;4.10;99.90;;;;;;4998680;28;20034;-88
2022/01/12 09:10:05;;;;;;;61.78;21.08;;;4.10;99.90;;;;;;4973021;28;20102;-88
2022/01/12 09:12:30;;;;;;;69.80;23.15;;;4.20;99.90;;;;;;4981198;28;20026;-89
2022/01/12 09:14:56;;;;;;;63.33;23.50;;;4.20;99.90;;;;;;4977658;28;20031;-88
2022/01/12 09:17:23;;;;;;;67.90;21.60;;;4.10;99.90;;;;;;4988851;28;20026;-88
2022/01/12 09:19:51;;;;;;;67.88;24.73;;;4.20;99.90;;;;;;4978841;28;20108;-91
2022/01/12 09:22:17;;;;;;;79.90;25.05;;;4.20;99.90;;;;;;4978663;28;20025;-89
2022/01/12 09:24:44;;;;;;;70.22;24.45;;;4.20;99.90;;;;;;4980270;28;20442;-90
2022/01/12 09:27:10;;;;;;;77.20;25.05;;;4.20;99.90;;;;;;4982780;28;20027;-89
2022/01/12 09:29:36;;;;;;;67.80;23.98;;;4.20;99.90;;;;;;4978051;28;20035;-89
2022/01/12 09:32:02;;;;;;;78.35;26.35;;;4.10;99.90;;;;;;4979974;28;20049;-90
2022/01/12 09:34:28;;;;;;;82.80;25.73;;;4.20;99.90;;;;;;4979639;28;20064;-89
2022/01/12 09:36:54;;;;;;;69.38;23.60;;;4.20;99.90;;;;;;4979814;28;20037;-90
2022/01/12 09:39:20;;;;;;;75.07;24.25;;;4.20;99.90;;;;;;4977989;28;20046;-90
2022/01/12 09:41:45;;;;;;;78.38;25.58;;;4.30;99.90;;;;;;4979290;28;20038;-91
2022/01/12 09:44:12;;;;;;;70.70;24.23;;;4.30;99.90;;;;;;4979340;28;20053;-91
2022/01/12 09:46:38;;;;;;;68.07;25.40;;;4.40;99.90;;;;;;4978725;28;20030;-91
2022/01/12 09:49:06;;;;;;;84.68;27.85;;;4.30;99.90;;;;;;4979778;28;20034;-91
2022/01/12 09:51:32;;;;;;;78.88;26.02;;;4.30;99.90;;;;;;4978504;28;20026;-89
2022/01/12 09:53:58;;;;;;;83.40;28.15;;;4.30;99.90;;;;;;4978494;28;20033;-89
2022/01/12 09:56:28;;;;;;;79.50;27.10;;;4.30;99.90;;;;;;4995915;28;20474;-89
2022/01/12 09:58:56;;;;;;;85.32;28.85;;;4.30;99.90;;;;;;4979814;28;20057;-89
2022/01/12 10:01:35;;;;;;;82.80;26.17;;;4.30;99.90;;;;;;4977821;28;20081;-89
2022/01/12 10:04:15;;;;;;;74.25;26.27;;;4.40;99.90;;;;;;4979047;28;20038;-88
2022/01/12 10:06:47;;;;;;;79.05;26.83;;;4.30;99.90;;;;;;4980222;28;20030;-89
2022/01/12 10:09:15;;;;;;;82.70;28.63;;;4.30;99.90;;;;;;4979807;28;20383;-89
2022/01/12 10:12:00;;;;;;;81.20;26.70;;;4.30;99.90;;;;;;4979641;28;20353;-89
2022/01/12 10:14:42;;;;;;;72.03;25.20;;;4.30;99.90;;;;;;4985582;28;20034;-89
2022/01/12 10:17:09;;;;;;;78.00;25.73;;;4.30;99.90;;;;;;4987541;28;20046;-89
2022/01/12 10:19:35;;;;;;;75.72;25.75;;;4.30;99.90;;;;;;4996112;28;20022;-89
2022/01/12 10:22:04;;;;;;;78.03;25.10;;;4.30;99.90;;;;;;4968052;28;20066;-90
2022/01/12 10:24:31;;;;;;;71.00;26.00;;;4.40;99.90;;;;;;4969143;28;20050;-90
2022/01/12 10:26:57;;;;;;;72.00;23.17;;;4.50;99.90;;;;;;4996327;28;20072;-89
2022/01/12 10:29:27;;;;;;;69.30;23.70;;;4.50;99.90;;;;;;4978538;28;20026;-88
2022/01/12 10:31:55;;;;;;;67.88;23.63;;;4.60;99.90;;;;;;4988741;28;20033;-89
2022/01/12 10:34:27;;;;;;;69.95;24.60;;;4.50;99.90;;;;;;4995268;28;20053;-89
2022/01/12 10:36:54;;;;;;;74.13;25.93;;;4.60;99.90;;;;;;4978647;28;20026;-89
2022/01/12 10:39:23;;;;;;;72.00;26.58;;;4.50;99.90;;;;;;4978777;28;20030;-88
2022/01/12 10:42:03;;;;;;;79.88;26.80;;;4.50;99.90;;;;;;4994098;28;20502;-89
2022/01/12 10:44:34;;;;;;;73.95;26.52;;;4.60;99.90;;;;;;5003399;28;20034;-88
2022/01/12 10:47:17;;;;;;;76.78;26.67;;;4.60;99.90;;;;;;4984560;28;20057;-89
2022/01/12 10:50:00;;;;;;;75.85;26.15;;;4.70;99.90;;;;;;4977421;28;20033;-87
2022/01/12 10:52:29;;;;;;;73.78;24.60;;;4.70;99.90;;;;;;4974382;28;20030;-88
2022/01/12 10:54:56;;;;;;;72.85;25.15;;;4.70;99.90;;;;;;4985693;28;20054;-88
2022/01/12 10:57:37;;;;;;;67.38;23.67;;;4.70;99.90;;;;;;4977672;28;20057;-88
2022/01/12 11:00:06;;;;;;;66.38;24.35;;;4.70;99.90;;;;;;4975761;28;20038;-89
2022/01/12 11:02:33;;;;;;;65.18;24.88;;;4.80;99.90;;;;;;4975900;28;20045;-88
2022/01/12 11:04:59;;;;;;;61.08;23.27;;;4.80;99.90;;;;;;4977893;28;20089;-89
2022/01/12 11:07:27;;;;;;;67.68;23.67;;;4.90;99.90;;;;;;4994908;28;20026;-89
2022/01/12 11:09:56;;;;;;;60.20;22.77;;;4.90;99.90;;;;;;4993522;28;20117;-88
2022/01/12 11:12:22;;;;;;;65.47;23.35;;;5.00;99.90;;;;;;4977370;28;20034;-89
2022/01/12 11:14:48;;;;;;;58.90;23.00;;;5.00;99.90;;;;;;4977554;28;20034;-88
2022/01/12 11:17:13;;;;;;;72.80;26.13;;;5.10;99.90;;;;;;4974076;28;20121;-88
2022/01/12 11:19:44;;;;;;;63.22;23.65;;;5.10;99.90;;;;;;4959333;28;20059;-88
2022/01/12 11:22:33;;;;;;;69.32;24.02;;;5.10;99.90;;;;;;4977585;28;20057;-88
2022/01/12 11:24:58;;;;;;;65.70;23.83;;;5.10;99.90;;;;;;4977371;28;20042;-89
2022/01/12 11:27:24;;;;;;;71.13;25.05;;;5.10;99.90;;;;;;4972239;28;20218;-88
2022/01/12 11:29:50;;;;;;;68.30;27.73;;;5.20;99.90;;;;;;4977341;28;20026;-88
2022/01/12 11:32:23;;;;;;;70.03;26.23;;;5.30;99.90;;;;;;4977274;28;20061;-88
2022/01/12 11:35:02;;;;;;;70.68;25.50;;;5.40;99.90;;;;;;4975351;28;20027;-89
2022/01/12 11:37:28;;;;;;;67.47;25.58;;;5.50;99.90;;;;;;4973970;28;20035;-87
2022/01/12 11:40:05;;;;;;;67.05;25.88;;;5.50;99.90;;;;;;4958033;28;20031;-88
2022/01/12 11:42:36;;;;;;;64.90;25.23;;;5.50;99.90;;;;;;4974541;28;20093;-88
2022/01/12 11:45:01;;;;;;;64.75;24.52;;;5.50;99.90;;;;;;4976420;28;20053;-88
2022/01/12 11:47:28;;;;;;;67.35;25.60;;;5.50;99.90;;;;;;4990442;28;20390;-88
2022/01/12 11:49:54;;;;;;;66.57;25.15;;;5.50;99.90;;;;;;4992765;28;20034;-88
2022/01/12 11:52:25;;;;;;;67.28;24.70;;;5.60;99.90;;;;;;4976018;28;20082;-87
2022/01/12 11:54:53;;;;;;;64.03;25.20;;;5.60;99.90;;;;;;4976426;28;20031;-87
2022/01/12 11:57:35;;;;;;;67.43;25.33;;;5.60;99.90;;;;;;4976002;28;20026;-88
2022/01/12 12:00:36;;;;;;;64.53;24.07;;;5.60;99.90;;;;;;4976930;28;20018;-87
2022/01/12 12:03:05;;;;;;;62.60;22.48;;;5.60;99.90;;;;;;4946578;28;20274;-88
2022/01/12 12:05:31;;;;;;;67.95;24.33;;;5.50;99.90;;;;;;4971130;28;20414;-89
2022/01/12 12:08:04;;;;;;;66.18;24.42;;;5.50;99.90;;;;;;4977718;28;20478;-89
2022/01/12 12:10:35;;;;;;;62.70;24.45;;;5.50;99.90;;;;;;4978629;28;20026;-89
2022/01/12 12:13:02;;;;;;;57.38;23.00;;;5.50;99.90;;;;;;4981323;28;20080;-88
2022/01/12 12:15:29;;;;;;;71.25;24.63;;;5.50;99.90;;;;;;4981501;28;20022;-88
2022/01/12 12:18:04;;;;;;;67.93;25.38;;;5.50;99.90;;;;;;4982102;28;20038;-88
2022/01/12 12:20:31;;;;;;;62.25;24.25;;;5.60;99.90;;;;;;4978501;28;20027;-87
2022/01/12 12:22:57;;;;;;;75.25;26.70;;;5.50;99.90;;;;;;4981273;28;20050;-88
2022/01/12 12:25:30;;;;;;;61.03;24.50;;;5.60;99.90;;;;;;4980469;28;20041;-89
2022/01/12 12:28:01;;;;;;;56.28;23.65;;;5.60;99.90;;;;;;4979364;28;20494;-88
2022/01/12 12:30:30;;;;;;;61.97;24.02;;;5.70;99.90;;;;;;4996998;28;20112;-88
2022/01/12 12:33:18;;;;;;;64.20;24.10;;;5.70;99.90;;;;;;4971500;28;20149;-89
2022/01/12 12:35:44;;;;;;;57.47;22.40;;;5.70;99.90;;;;;;4975909;28;20038;-87
2022/01/12 12:38:12;;;;;;;67.03;23.60;;;5.70;99.90;;;;;;4966111;28;20049;-88
2022/01/12 12:40:40;;;;;;;65.40;23.45;;;5.70;99.90;;;;;;4977810;28;20030;-88
2022/01/12 12:43:23;;;;;;;59.88;22.90;;;5.80;99.90;;;;;;4992560;28;20039;-88
2022/01/12 12:46:05;;;;;;;64.95;23.50;;;5.80;99.90;;;;;;4979679;28;20034;-91
2022/01/12 12:48:33;;;;;;;62.60;23.38;;;5.80;99.90;;;;;;4979637;28;20085;-88
2022/01/12 12:51:09;;;;;;;60.05;22.10;;;5.80;99.90;;;;;;4978717;28;20023;-88
2022/01/12 12:53:40;;;;;;;57.95;22.38;;;5.90;99.90;;;;;;4978627;28;20494;-88
2022/01/12 12:56:13;;;;;;;57.75;23.65;;;5.90;99.90;;;;;;4976420;28;20027;-88
2022/01/12 12:58:39;;;;;;;55.42;22.00;;;6.00;99.90;;;;;;4978177;28;20081;-88
2022/01/12 13:01:11;;;;;;;57.88;21.27;;;6.00;99.90;;;;;;4979394;28;20027;-88
2022/01/12 13:03:37;;;;;;;53.30;20.07;;;6.00;99.90;;;;;;4995970;28;20073;-87
2022/01/12 13:06:03;;;;;;;53.10;21.30;;;6.00;99.90;;;;;;4979518;28;20030;-87
2022/01/12 13:08:29;;;;;;;56.50;21.63;;;5.90;99.90;;;;;;4983368;28;20036;-87
2022/01/12 13:10:55;;;;;;;58.90;20.35;;;5.80;99.90;;;;;;4980813;28;20109;-87
2022/01/12 13:13:20;;;;;;;50.17;21.20;;;5.70;99.90;;;;;;4978774;28;20036;-87
2022/01/12 13:15:47;;;;;;;56.28;21.13;;;5.70;99.90;;;;;;4964585;28;20022;-87
2022/01/12 13:18:22;;;;;;;58.22;23.05;;;5.60;99.90;;;;;;4979069;28;20065;-87
2022/01/12 13:21:09;;;;;;;54.63;21.30;;;5.60;99.90;;;;;;4978726;28;20026;-87
2022/01/12 13:23:47;;;;;;;55.65;21.33;;;5.60;99.90;;;;;;4977009;28;20043;-87
2022/01/12 13:26:15;;;;;;;57.30;21.92;;;5.70;99.90;;;;;;4982191;28;20077;-88
2022/01/12 13:28:44;;;;;;;52.55;21.13;;;5.70;99.90;;;;;;4976898;28;20058;-87
2022/01/12 13:31:12;;;;;;;61.22;22.05;;;5.80;99.90;;;;;;4975030;28;20027;-89
2022/01/12 13:33:42;;;;;;;60.75;22.45;;;5.80;99.90;;;;;;4990571;28;20093;-87
2022/01/12 13:36:14;;;;;;;50.05;21.25;;;5.80;99.90;;;;;;4971576;28;20030;-88
2022/01/12 13:38:40;;;;;;;54.20;21.02;;;5.80;99.90;;;;;;4974931;28;20503;-86
2022/01/12 13:41:08;;;;;;;52.88;21.10;;;5.70;99.90;;;;;;4975356;28;20026;-88
2022/01/12 13:43:35;;;;;;;57.97;21.05;;;5.60;99.90;;;;;;4972731;28;20051;-87
2022/01/12 13:46:04;;;;;;;56.80;22.25;;;5.50;99.90;;;;;;4974862;28;20057;-88
2022/01/12 13:48:31;;;;;;;59.47;22.95;;;5.50;99.90;;;;;;4973497;28;20033;-88
2022/01/12 13:50:59;;;;;;;58.47;22.67;;;5.50;99.90;;;;;;4974935;28;20539;-88
2022/01/12 13:53:36;;;;;;;56.95;21.92;;;5.50;99.90;;;;;;4975320;28;20035;-88
2022/01/12 13:56:03;;;;;;;59.80;21.83;;;5.50;99.90;;;;;;4972192;28;20023;-89
2022/01/12 13:58:30;;;;;;;59.20;23.77;;;5.60;99.90;;;;;;4974869;28;20126;-88